createdAt,value
2023-04-16T00:00:36.300Z,58.48
2023-04-16T00:03:23.514Z,59.74
2023-04-16T00:05:50.712Z,68.05
2023-04-16T00:08:18.577Z,71.42
2023-04-16T00:10:45.227Z,63.80
2023-04-16T00:13:12.953Z,57.58
2023-04-16T00:15:39.398Z,53.74
2023-04-16T00:18:05.873Z,54.91
2023-04-16T00:20:32.995Z,57.63
2023-04-16T00:23:00.054Z,57.66
2023-04-16T00:25:26.877Z,60.30
2023-04-16T00:27:53.391Z,67.55
2023-04-16T00:30:20.032Z,69.80
2023-04-16T00:32:46.702Z,62.99
2023-04-16T00:35:13.183Z,57.25
2023-04-16T00:37:39.904Z,54.85
2023-04-16T00:40:07.797Z,56.51
2023-04-16T00:42:37.910Z,57.10
2023-04-16T00:45:05.845Z,59.48
2023-04-16T00:47:37.771Z,60.81
2023-04-16T00:50:09.326Z,69.50
2023-04-16T00:52:36.611Z,70.51
2023-04-16T00:55:07.108Z,63.01
2023-04-16T00:57:34.579Z,58.65
2023-04-16T01:00:05.665Z,55.21
2023-04-16T01:02:34.178Z,56.51
2023-04-16T01:05:02.808Z,58.76
2023-04-16T01:07:30.875Z,60.81
2023-04-16T01:09:57.394Z,67.38
2023-04-16T01:12:27.478Z,68.40
2023-04-16T01:14:55.915Z,62.16
2023-04-16T01:17:24.858Z,55.28
2023-04-16T01:19:52.197Z,53.55
2023-04-16T01:22:20.326Z,55.39
2023-04-16T01:24:49.543Z,57.52
2023-04-16T01:27:16.370Z,59.19
2023-04-16T01:29:44.324Z,66.99
2023-04-16T01:32:12.018Z,69.08
2023-04-16T01:34:38.701Z,63.31
2023-04-16T01:37:05.736Z,58.96
2023-04-16T01:39:33.244Z,53.01
2023-04-16T01:42:00.729Z,53.85
2023-04-16T01:44:27.516Z,56.64
2023-04-16T01:46:54.642Z,58.00
2023-04-16T01:49:23.297Z,59.73
2023-04-16T01:51:53.363Z,60.98
2023-04-16T01:54:19.953Z,68.43
2023-04-16T01:56:47.522Z,71.43
2023-04-16T01:59:14.191Z,61.60
2023-04-16T02:01:41.832Z,54.94
2023-04-16T02:04:10.422Z,53.71
2023-04-16T02:06:39.353Z,55.72
2023-04-16T02:09:06.096Z,58.18
2023-04-16T02:11:34.233Z,60.14
2023-04-16T02:14:00.724Z,68.91
2023-04-16T02:16:27.357Z,68.99
2023-04-16T02:18:56.264Z,61.03
2023-04-16T02:21:25.351Z,55.32
2023-04-16T02:23:53.040Z,53.95
2023-04-16T02:26:20.041Z,56.81
2023-04-16T02:28:46.892Z,60.00
2023-04-16T02:31:18.062Z,61.05
2023-04-16T02:33:44.931Z,69.23
2023-04-16T02:36:12.403Z,70.32
2023-04-16T02:38:42.166Z,63.55
2023-04-16T02:41:09.499Z,58.84
2023-04-16T02:43:36.023Z,53.60
2023-04-16T02:46:04.144Z,54.04
2023-04-16T02:48:31.252Z,55.61
2023-04-16T02:50:57.760Z,57.07
2023-04-16T02:53:24.498Z,60.57
2023-04-16T02:55:54.022Z,68.01
2023-04-16T02:58:24.751Z,69.79
2023-04-16T03:00:53.190Z,62.93
2023-04-16T03:03:20.542Z,55.99
2023-04-16T03:05:48.632Z,54.40
2023-04-16T03:08:15.790Z,57.17
2023-04-16T03:10:42.560Z,58.86
2023-04-16T03:13:09.011Z,60.16
2023-04-16T03:15:35.608Z,67.11
2023-04-16T03:18:05.685Z,68.47
2023-04-16T03:20:32.741Z,65.76
2023-04-16T03:22:59.421Z,59.83
2023-04-16T03:25:28.337Z,54.39
2023-04-16T03:27:55.328Z,55.12
2023-04-16T03:30:24.089Z,57.34
2023-04-16T03:32:51.718Z,59.23
2023-04-16T03:35:21.067Z,60.29
2023-04-16T03:37:47.638Z,66.30
2023-04-16T03:40:15.959Z,69.41
2023-04-16T03:42:42.773Z,63.38
2023-04-16T03:45:10.353Z,59.09
2023-04-16T03:47:38.163Z,53.31
2023-04-16T03:50:05.572Z,53.70
2023-04-16T03:52:32.007Z,55.56
2023-04-16T03:54:58.545Z,56.79
2023-04-16T03:57:26.753Z,58.69
2023-04-16T03:59:53.111Z,60.02
2023-04-16T04:02:19.691Z,67.72
2023-04-16T04:04:47.047Z,72.59
2023-04-16T04:07:17.763Z,65.88
2023-04-16T04:09:45.258Z,60.99
2023-04-16T04:12:11.611Z,54.96
2023-04-16T04:14:39.374Z,54.61
2023-04-16T04:17:08.514Z,56.35
2023-04-16T04:19:47.104Z,57.97
2023-04-16T04:22:17.924Z,61.90
2023-04-16T04:24:44.974Z,69.73
2023-04-16T04:27:11.347Z,66.26
2023-04-16T04:29:37.762Z,61.24
2023-04-16T04:32:05.771Z,56.39
2023-04-16T04:34:32.587Z,55.81
2023-04-16T04:37:01.083Z,57.38
2023-04-16T04:39:28.750Z,60.25
2023-04-16T04:41:59.204Z,66.69
2023-04-16T04:44:28.493Z,68.68
2023-04-16T04:46:56.131Z,63.39
2023-04-16T04:49:22.918Z,57.59
2023-04-16T04:51:49.841Z,55.09
2023-04-16T04:54:17.789Z,56.40
2023-04-16T04:56:46.155Z,58.90
2023-04-16T04:59:12.908Z,60.57
2023-04-16T05:01:40.534Z,68.85
2023-04-16T05:04:07.488Z,71.46
2023-04-16T05:06:35.601Z,65.50
2023-04-16T05:09:03.588Z,61.34
2023-04-16T05:11:33.183Z,56.55
2023-04-16T05:14:02.158Z,55.26
2023-04-16T05:16:28.833Z,59.11
2023-04-16T05:18:55.625Z,62.48
2023-04-16T05:21:25.812Z,68.54
2023-04-16T05:23:53.807Z,65.58
2023-04-16T05:26:21.108Z,60.97
2023-04-16T05:28:47.693Z,56.49
2023-04-16T05:31:16.394Z,55.40
2023-04-16T05:33:43.331Z,57.77
2023-04-16T05:36:10.821Z,60.65
2023-04-16T05:38:38.879Z,67.33
2023-04-16T05:41:05.509Z,69.44
2023-04-16T05:43:32.331Z,65.17
2023-04-16T05:46:01.810Z,61.35
2023-04-16T05:48:29.080Z,55.80
2023-04-16T05:50:56.509Z,55.67
2023-04-16T05:53:23.552Z,59.18
2023-04-16T05:55:53.311Z,63.39
2023-04-16T05:58:20.492Z,67.25
2023-04-16T06:00:50.442Z,64.25
2023-04-16T06:03:17.029Z,60.95
2023-04-16T06:05:46.569Z,55.74
2023-04-16T06:08:13.007Z,55.21
2023-04-16T06:10:39.664Z,58.62
2023-04-16T06:13:06.687Z,63.26
2023-04-16T06:15:33.188Z,67.63
2023-04-16T06:18:02.916Z,63.76
2023-04-16T06:20:30.361Z,59.41
2023-04-16T06:22:57.312Z,54.05
2023-04-16T06:25:24.113Z,54.62
2023-04-16T06:27:50.720Z,55.30
2023-04-16T06:30:17.680Z,57.97
2023-04-16T06:32:45.935Z,59.32
2023-04-16T06:35:15.596Z,64.21
2023-04-16T06:37:42.552Z,72.33
2023-04-16T06:40:09.837Z,67.73
2023-04-16T06:42:39.065Z,62.57
2023-04-16T06:45:07.267Z,57.55
2023-04-16T06:47:33.958Z,54.38
2023-04-16T06:50:02.323Z,57.66
2023-04-16T06:52:29.198Z,58.44
2023-04-16T06:54:58.021Z,59.91
2023-04-16T06:57:25.702Z,66.62
2023-04-16T06:59:52.382Z,69.35
2023-04-16T07:02:19.707Z,63.46
2023-04-16T07:04:46.479Z,60.61
2023-04-16T07:07:15.678Z,56.85
2023-04-16T07:09:42.572Z,55.42
2023-04-16T07:12:13.940Z,58.21
2023-04-16T07:14:44.619Z,64.41
2023-04-16T07:17:12.222Z,67.49
2023-04-16T07:19:44.818Z,63.95
2023-04-16T07:22:14.130Z,60.33
2023-04-16T07:24:43.488Z,55.80
2023-04-16T07:27:16.024Z,56.89
2023-04-16T07:29:45.333Z,58.51
2023-04-16T07:32:15.138Z,65.51
2023-04-16T07:34:45.979Z,66.66
2023-04-16T07:37:15.701Z,61.47
2023-04-16T07:39:42.267Z,59.20
2023-04-16T07:42:12.366Z,55.17
2023-04-16T07:44:41.171Z,57.78
2023-04-16T07:47:10.631Z,60.07
2023-04-16T07:49:39.993Z,66.89
2023-04-16T07:52:08.857Z,67.91
2023-04-16T07:54:37.949Z,63.37
2023-04-16T07:57:05.897Z,60.05
2023-04-16T07:59:32.458Z,55.82
2023-04-16T08:01:59.386Z,56.29
2023-04-16T08:04:28.218Z,59.25
2023-04-16T08:06:55.698Z,64.18
2023-04-16T08:09:28.855Z,64.02
2023-04-16T08:11:58.797Z,62.88
2023-04-16T08:14:28.069Z,59.89
2023-04-16T08:16:55.137Z,54.82
2023-04-16T08:19:31.732Z,56.27
2023-04-16T08:21:59.143Z,59.13
2023-04-16T08:24:27.706Z,65.32
2023-04-16T08:26:58.456Z,68.73
2023-04-16T08:29:29.499Z,61.10
2023-04-16T08:32:00.547Z,57.37
2023-04-16T08:34:34.930Z,60.12
2023-04-16T08:37:02.906Z,65.04
2023-04-16T08:39:31.207Z,65.54
2023-04-16T08:41:59.038Z,62.39
2023-04-16T08:44:35.004Z,60.10
2023-04-16T08:47:02.953Z,55.75
2023-04-16T08:49:38.165Z,55.64
2023-04-16T08:52:06.113Z,57.63
2023-04-16T08:54:56.785Z,63.85
2023-04-16T08:57:43.353Z,66.01
2023-04-16T09:00:13.641Z,64.54
2023-04-16T09:02:43.759Z,61.45
2023-04-16T09:05:16.905Z,56.71
2023-04-16T09:07:47.828Z,59.47
2023-04-16T09:10:16.981Z,62.26
2023-04-16T09:12:46.553Z,65.22
2023-04-16T09:15:15.391Z,62.56
2023-04-16T09:17:42.422Z,59.79
2023-04-16T09:20:11.567Z,57.06
2023-04-16T09:22:42.123Z,59.56
2023-04-16T09:25:10.665Z,61.40
2023-04-16T09:27:38.579Z,66.82
2023-04-16T09:30:27.009Z,65.01
2023-04-16T09:33:16.046Z,62.11
2023-04-16T09:35:48.915Z,57.37
2023-04-16T09:38:20.561Z,56.50
2023-04-16T09:41:10.382Z,57.79
2023-04-16T09:43:39.726Z,63.23
2023-04-16T09:46:08.571Z,65.07
2023-04-16T09:48:35.425Z,60.84
2023-04-16T09:51:07.349Z,56.05
2023-04-16T09:53:35.141Z,56.71
2023-04-16T09:56:06.166Z,58.88
2023-04-16T09:58:37.632Z,60.88
2023-04-16T10:01:15.429Z,65.56
2023-04-16T10:03:42.334Z,62.75
2023-04-16T10:06:21.448Z,58.99
2023-04-16T10:08:56.397Z,54.68
2023-04-16T10:11:27.049Z,56.54
2023-04-16T10:13:53.550Z,59.80
2023-04-16T10:16:22.893Z,63.67
2023-04-16T10:18:52.424Z,64.23
2023-04-16T10:21:20.363Z,57.86
2023-04-16T10:23:49.071Z,55.69
2023-04-16T10:26:18.395Z,55.44
2023-04-16T10:28:49.675Z,58.64
2023-04-16T10:31:22.219Z,64.57
2023-04-16T10:33:51.803Z,64.46
2023-04-16T10:36:29.088Z,58.33
2023-04-16T10:38:59.508Z,56.17
2023-04-16T10:41:27.844Z,58.43
2023-04-16T10:44:09.501Z,61.71
2023-04-16T10:46:40.806Z,64.78
2023-04-16T10:49:26.857Z,60.35
2023-04-16T10:52:12.533Z,56.73
2023-04-16T10:54:40.758Z,58.86
2023-04-16T10:57:19.037Z,61.02
2023-04-16T10:59:49.931Z,64.70
2023-04-16T11:02:20.165Z,62.79
2023-04-16T11:04:51.001Z,57.80
2023-04-16T11:07:19.819Z,58.02
2023-04-16T11:10:04.527Z,61.08
2023-04-16T11:12:40.598Z,63.88
2023-04-16T11:15:22.540Z,63.48
2023-04-16T11:17:52.058Z,61.07
2023-04-16T11:20:28.059Z,55.89
2023-04-16T11:22:57.751Z,55.27
2023-04-16T11:25:42.197Z,59.63
2023-04-16T11:28:09.087Z,60.25
2023-04-16T11:30:38.710Z,65.43
2023-04-16T11:33:11.713Z,64.26
2023-04-16T11:35:40.875Z,59.20
2023-04-16T11:38:09.843Z,57.14
2023-04-16T11:40:42.220Z,58.70
2023-04-16T11:43:16.623Z,60.43
2023-04-16T11:46:00.329Z,64.71
2023-04-16T11:48:48.791Z,62.42
2023-04-16T11:51:17.682Z,61.78
2023-04-16T11:53:56.634Z,55.71
2023-04-16T11:56:33.833Z,55.70
2023-04-16T11:59:13.455Z,58.10
2023-04-16T12:01:45.901Z,62.40
2023-04-16T12:04:16.047Z,64.28
2023-04-16T12:07:19.187Z,61.67
2023-04-16T12:09:45.580Z,55.31
2023-04-16T12:12:30.364Z,55.33
2023-04-16T12:14:59.221Z,56.89
2023-04-16T12:17:30.367Z,60.46
2023-04-16T12:20:04.294Z,64.02
2023-04-16T12:22:37.263Z,64.67
2023-04-16T12:25:16.723Z,61.63
2023-04-16T12:27:47.772Z,55.82
2023-04-16T12:30:18.261Z,55.65
2023-04-16T12:32:48.767Z,57.57
2023-04-16T12:35:33.758Z,61.07
2023-04-16T12:38:00.952Z,65.46
2023-04-16T12:40:29.439Z,62.16
2023-04-16T12:42:56.046Z,57.39
2023-04-16T12:45:26.066Z,54.36
2023-04-16T12:47:53.506Z,57.46
2023-04-16T12:50:22.167Z,60.54
2023-04-16T12:52:48.721Z,63.01
2023-04-16T12:55:15.777Z,65.82
2023-04-16T12:57:45.856Z,63.82
2023-04-16T13:00:22.509Z,54.96
2023-04-16T13:02:49.840Z,54.73
2023-04-16T13:05:19.606Z,57.01
2023-04-16T13:07:49.448Z,60.97
2023-04-16T13:10:20.372Z,60.71
2023-04-16T13:12:49.218Z,66.46
2023-04-16T13:15:15.839Z,66.39
2023-04-16T13:17:42.431Z,61.07
2023-04-16T13:20:12.929Z,55.36
2023-04-16T13:22:39.798Z,54.33
2023-04-16T13:25:08.217Z,57.39
2023-04-16T13:27:37.049Z,59.94
2023-04-16T13:30:04.011Z,60.43
2023-04-16T13:32:30.770Z,64.71
2023-04-16T13:34:59.413Z,64.68
2023-04-16T13:37:27.792Z,60.67
2023-04-16T13:39:56.785Z,55.78
2023-04-16T13:42:23.848Z,55.09
2023-04-16T13:44:56.289Z,56.97
2023-04-16T13:47:26.332Z,58.88
2023-04-16T13:49:55.360Z,62.25
2023-04-16T13:52:22.438Z,67.35
2023-04-16T13:54:56.648Z,62.14
2023-04-16T13:57:25.402Z,57.07
2023-04-16T13:59:53.137Z,55.86
2023-04-16T14:02:20.356Z,56.82
2023-04-16T14:04:51.233Z,59.27
2023-04-16T14:07:21.959Z,61.68
2023-04-16T14:09:48.616Z,67.69
2023-04-16T14:12:15.992Z,63.12
2023-04-16T14:14:43.047Z,59.77
2023-04-16T14:19:53.015Z,54.60
2023-04-16T14:22:21.425Z,56.29
2023-04-16T14:24:48.270Z,59.85
2023-04-16T14:27:16.854Z,59.32
2023-04-16T14:29:46.934Z,62.25
2023-04-16T14:32:16.070Z,65.76
2023-04-16T14:34:45.622Z,63.71
2023-04-16T14:37:12.052Z,59.98
2023-04-16T14:39:42.122Z,53.85
2023-04-16T14:42:11.440Z,52.77
2023-04-16T14:44:38.300Z,56.47
2023-04-16T14:47:06.060Z,58.64
2023-04-16T14:49:34.288Z,60.42
2023-04-16T14:52:06.155Z,63.59
2023-04-16T14:54:37.347Z,67.73
2023-04-16T14:57:05.740Z,60.99
2023-04-16T14:59:36.243Z,55.49
2023-04-16T15:02:03.952Z,56.10
2023-04-16T15:04:30.624Z,58.82
2023-04-16T15:06:58.923Z,58.87
2023-04-16T15:09:26.951Z,60.39
2023-04-16T15:11:54.440Z,64.17
2023-04-16T15:14:22.923Z,64.48
2023-04-16T15:16:53.776Z,61.17
2023-04-16T15:19:20.805Z,55.48
2023-04-16T15:21:48.857Z,54.14
2023-04-16T15:24:15.996Z,57.63
2023-04-16T15:26:44.817Z,58.40
2023-04-16T15:29:11.883Z,60.94
2023-04-16T15:31:42.309Z,65.20
2023-04-16T15:34:08.936Z,63.51
2023-04-16T15:36:37.386Z,60.21
2023-04-16T15:39:12.546Z,55.34
2023-04-16T15:41:57.577Z,56.66
2023-04-16T15:44:30.427Z,58.72
2023-04-16T15:46:59.734Z,63.06
2023-04-16T15:49:30.067Z,63.56
2023-04-16T15:51:57.452Z,60.57
2023-04-16T15:54:24.242Z,55.54
2023-04-16T15:56:53.839Z,57.12
2023-04-16T15:59:20.947Z,58.49
2023-04-16T16:01:51.756Z,61.39
2023-04-16T16:04:21.647Z,64.94
2023-04-16T16:06:56.203Z,62.50
2023-04-16T16:09:26.343Z,56.85
2023-04-16T16:11:54.453Z,56.24
2023-04-16T16:14:23.896Z,60.35
2023-04-16T16:16:51.539Z,62.97
2023-04-16T16:19:18.621Z,62.50
2023-04-16T16:21:48.166Z,59.05
2023-04-16T16:24:15.646Z,57.51
2023-04-16T16:26:42.217Z,60.47
2023-04-16T16:29:10.196Z,63.79
2023-04-16T16:31:36.929Z,63.65
2023-04-16T16:34:05.878Z,61.98
2023-04-16T16:36:36.179Z,56.88
2023-04-16T16:39:03.660Z,54.63
2023-04-16T16:41:35.217Z,55.42
2023-04-16T16:44:01.776Z,57.42
2023-04-16T16:46:30.092Z,61.35
2023-04-16T16:48:58.057Z,64.24
2023-04-16T16:51:27.666Z,64.80
2023-04-16T16:53:58.437Z,61.94
2023-04-16T16:56:25.231Z,55.74
2023-04-16T16:58:51.638Z,57.27
2023-04-16T17:01:20.178Z,59.54
2023-04-16T17:03:46.680Z,60.57
2023-04-16T17:06:14.112Z,64.19
2023-04-16T17:08:41.190Z,64.91
2023-04-16T17:11:07.616Z,61.14
2023-04-16T17:13:37.356Z,58.07
2023-04-16T17:16:04.119Z,58.41
2023-04-16T17:18:30.672Z,61.40
2023-04-16T17:20:57.755Z,63.68
2023-04-16T17:23:25.936Z,61.75
2023-04-16T17:25:56.292Z,58.38
2023-04-16T17:28:22.687Z,59.20
2023-04-16T17:30:55.751Z,61.35
2023-04-16T17:33:22.350Z,63.92
2023-04-16T17:35:49.130Z,61.78
2023-04-16T17:38:16.145Z,59.55
2023-04-16T17:40:43.908Z,57.62
2023-04-16T17:43:10.883Z,59.54
2023-04-16T17:45:37.369Z,61.45
2023-04-16T17:48:04.946Z,65.55
2023-04-16T17:50:31.365Z,61.59
2023-04-16T17:53:02.850Z,57.83
2023-04-16T17:55:30.577Z,58.81
2023-04-16T17:57:57.700Z,61.53
2023-04-16T18:00:25.409Z,64.71
2023-04-16T18:02:51.984Z,62.55
2023-04-16T18:05:19.357Z,58.00
2023-04-16T18:07:46.694Z,58.23
2023-04-16T18:10:13.651Z,60.82
2023-04-16T18:12:40.441Z,64.15
2023-04-16T18:15:08.246Z,62.75
2023-04-16T18:17:34.789Z,60.92
2023-04-16T18:20:06.374Z,57.37
2023-04-16T18:22:33.843Z,58.81
2023-04-16T18:25:01.548Z,61.93
2023-04-16T18:27:29.969Z,64.86
2023-04-16T18:29:56.696Z,62.29
2023-04-16T18:32:23.703Z,58.69
2023-04-16T18:34:51.018Z,59.00
2023-04-16T18:37:23.627Z,61.59
2023-04-16T18:39:52.964Z,63.62
2023-04-16T18:42:21.598Z,61.63
2023-04-16T18:44:52.577Z,57.90
2023-04-16T18:47:20.199Z,58.41
2023-04-16T18:49:46.819Z,61.27
2023-04-16T18:52:15.150Z,64.34
2023-04-16T18:54:42.908Z,62.92
2023-04-16T18:57:09.532Z,57.77
2023-04-16T18:59:39.563Z,58.16
2023-04-16T19:02:06.956Z,61.18
2023-04-16T19:04:34.957Z,64.32
2023-04-16T19:07:03.076Z,62.56
2023-04-16T19:09:31.018Z,60.83
2023-04-16T19:11:57.858Z,57.52
2023-04-16T19:14:25.461Z,55.93
2023-04-16T19:16:53.382Z,61.36
2023-04-16T19:19:20.138Z,64.11
2023-04-16T19:21:47.069Z,63.19
2023-04-16T19:24:13.905Z,62.09
2023-04-16T19:26:44.330Z,58.67
2023-04-16T19:29:11.505Z,54.20
2023-04-16T19:31:38.259Z,57.11
2023-04-16T19:34:05.281Z,58.52
2023-04-16T19:36:31.866Z,61.76
2023-04-16T19:39:03.505Z,64.86
2023-04-16T19:41:30.707Z,64.02
2023-04-16T19:43:57.576Z,61.60
2023-04-16T19:46:26.955Z,57.35
2023-04-16T19:48:58.370Z,57.47
2023-04-16T19:51:28.917Z,59.60
2023-04-16T19:54:06.027Z,63.46
2023-04-16T19:56:33.163Z,65.64
2023-04-16T19:59:01.763Z,60.08
2023-04-16T20:01:31.007Z,55.96
2023-04-16T20:04:00.627Z,56.97
2023-04-16T20:06:27.071Z,57.32
2023-04-16T20:08:53.676Z,57.84
2023-04-16T20:11:21.351Z,62.72
2023-04-16T20:13:49.180Z,69.93
2023-04-16T20:16:23.594Z,67.50
2023-04-16T20:18:53.635Z,60.61
2023-04-16T20:21:24.901Z,54.76
2023-04-16T20:23:51.593Z,54.65
2023-04-16T20:26:18.835Z,56.07
2023-04-16T20:28:45.808Z,57.51
2023-04-16T20:31:12.447Z,58.71
2023-04-16T20:33:42.812Z,61.04
2023-04-16T20:36:12.536Z,66.65
2023-04-16T20:38:38.934Z,66.73
2023-04-16T20:41:10.392Z,63.61
2023-04-16T20:43:40.727Z,58.91
2023-04-16T20:46:08.983Z,54.30
2023-04-16T20:48:38.023Z,56.27
2023-04-16T20:51:07.281Z,57.45
2023-04-16T20:53:33.728Z,59.16
2023-04-16T20:56:02.103Z,64.24
2023-04-16T20:58:30.449Z,68.36
2023-04-16T21:00:59.387Z,63.55
2023-04-16T21:03:26.653Z,58.48
2023-04-16T21:05:55.186Z,54.32
2023-04-16T21:08:24.577Z,56.37
2023-04-16T21:10:55.969Z,57.13
2023-04-16T21:13:23.213Z,59.90
2023-04-16T21:15:50.758Z,64.38
2023-04-16T21:18:18.337Z,68.83
2023-04-16T21:20:47.308Z,64.23
2023-04-16T21:23:13.667Z,59.47
2023-04-16T21:25:40.512Z,54.00
2023-04-16T21:28:07.240Z,54.22
2023-04-16T21:30:35.074Z,56.29
2023-04-16T21:33:01.917Z,57.31
2023-04-16T21:35:32.546Z,58.13
2023-04-16T21:38:02.385Z,60.20
2023-04-16T21:40:28.789Z,68.16
2023-04-16T21:42:56.888Z,68.17
2023-04-16T21:45:24.371Z,64.04
2023-04-16T21:47:53.488Z,60.64
2023-04-16T21:50:21.644Z,56.54
2023-04-16T21:52:48.648Z,56.15
2023-04-16T21:55:15.143Z,58.05
2023-04-16T21:57:42.401Z,60.80
2023-04-16T22:00:14.031Z,67.63
2023-04-16T22:02:42.076Z,67.61
2023-04-16T22:05:11.500Z,63.97
2023-04-16T22:07:38.033Z,61.42
2023-04-16T22:10:06.275Z,55.84
2023-04-16T22:12:38.935Z,54.70
2023-04-16T22:15:08.335Z,56.76
2023-04-16T22:17:35.344Z,59.54
2023-04-16T22:20:08.676Z,61.25
2023-04-16T22:22:35.419Z,67.58
2023-04-16T22:25:03.444Z,67.77
2023-04-16T22:27:30.710Z,64.48
2023-04-16T22:30:03.836Z,60.78
2023-04-16T22:32:30.873Z,56.24
2023-04-16T22:34:57.463Z,55.62
2023-04-16T22:37:25.177Z,60.15
2023-04-16T22:39:57.456Z,65.75
2023-04-16T22:42:25.728Z,66.08
2023-04-16T22:44:53.478Z,62.55
2023-04-16T22:47:20.842Z,59.77
2023-04-16T22:49:52.343Z,56.12
2023-04-16T22:52:20.867Z,56.25
2023-04-16T22:54:50.114Z,59.37
2023-04-16T22:57:24.816Z,63.51
2023-04-16T22:59:55.875Z,69.30
2023-04-16T23:02:22.760Z,64.39
2023-04-16T23:04:49.845Z,60.29
2023-04-16T23:07:16.910Z,55.03
2023-04-16T23:09:43.369Z,54.65
2023-04-16T23:12:10.097Z,57.71
2023-04-16T23:14:37.146Z,60.91
2023-04-16T23:17:05.938Z,66.60
2023-04-16T23:19:32.742Z,66.91
2023-04-16T23:22:01.667Z,61.18
2023-04-16T23:24:28.605Z,56.04
2023-04-16T23:27:00.116Z,55.21
2023-04-16T23:29:27.657Z,58.18
2023-04-16T23:31:59.700Z,65.02
2023-04-16T23:34:29.676Z,67.39
2023-04-16T23:36:56.486Z,61.72
2023-04-16T23:39:38.746Z,58.06
2023-04-16T23:42:11.887Z,56.99
2023-04-16T23:44:38.553Z,58.00
2023-04-16T23:47:05.818Z,60.62
2023-04-16T23:49:33.738Z,65.71
2023-04-16T23:52:03.926Z,67.64
2023-04-16T23:54:31.944Z,65.03
2023-04-16T23:56:58.536Z,61.37
2023-04-16T23:59:25.002Z,57.31
